createdAt,value
2023-01-18T00:00:28.437Z,12.50
2023-01-18T00:04:29.981Z,14.65
2023-01-18T00:08:33.505Z,9.77
2023-01-18T00:12:35.010Z,13.32
2023-01-18T00:16:36.569Z,14.88
2023-01-18T00:20:38.148Z,15.02
2023-01-18T00:24:39.552Z,15.13
2023-01-18T00:28:41.493Z,15.60
2023-01-18T00:32:46.052Z,12.68
2023-01-18T00:36:48.925Z,13.02
2023-01-18T00:40:50.630Z,11.23
2023-01-18T00:44:52.092Z,11.15
2023-01-18T00:48:54.729Z,11.30
2023-01-18T00:52:58.577Z,14.15
2023-01-18T00:57:00.393Z,10.00
2023-01-18T01:01:01.884Z,11.60
2023-01-18T01:05:22.442Z,14.57
2023-01-18T01:09:26.816Z,13.20
2023-01-18T01:13:46.716Z,17.30
2023-01-18T01:18:06.536Z,10.70
2023-01-18T01:22:26.795Z,19.85
2023-01-18T01:30:29.679Z,12.25
2023-01-18T01:34:31.830Z,12.65
2023-01-18T01:38:33.791Z,13.27
2023-01-18T01:42:35.262Z,13.55
2023-01-18T01:46:39.595Z,12.57
2023-01-18T01:50:41.778Z,16.00
2023-01-18T01:55:11.873Z,11.95
2023-01-18T01:59:15.613Z,15.25
2023-01-18T02:03:20.836Z,17.23
2023-01-18T02:07:23.654Z,15.38
2023-01-18T02:11:25.150Z,13.13
2023-01-18T02:15:43.232Z,14.80
2023-01-18T02:19:56.819Z,14.93
2023-01-18T02:24:31.806Z,12.82
2023-01-18T02:28:36.516Z,19.23
2023-01-18T02:32:53.562Z,13.63
2023-01-18T02:37:02.000Z,12.98
2023-01-18T02:41:49.087Z,15.75
2023-01-18T02:46:08.985Z,10.85
2023-01-18T02:50:10.957Z,13.35
2023-01-18T02:54:13.235Z,10.32
2023-01-18T02:58:26.167Z,12.93
2023-01-18T03:02:28.398Z,8.88
2023-01-18T03:06:30.494Z,11.18
2023-01-18T03:10:38.090Z,11.25
2023-01-18T03:15:05.314Z,15.68
2023-01-18T03:19:35.937Z,10.55
2023-01-18T03:23:42.462Z,8.85
2023-01-18T03:28:06.623Z,11.02
2023-01-18T03:32:31.109Z,11.10
2023-01-18T03:36:38.999Z,12.20
2023-01-18T03:40:40.741Z,14.02
2023-01-18T03:44:55.090Z,12.82
2023-01-18T03:48:57.101Z,12.85
2023-01-18T03:53:03.428Z,12.55
2023-01-18T03:57:15.147Z,14.18
2023-01-18T04:01:17.021Z,12.18
2023-01-18T04:05:18.573Z,14.82
2023-01-18T04:09:20.013Z,13.90
2023-01-18T04:13:21.509Z,10.85
2023-01-18T04:17:23.009Z,13.10
2023-01-18T04:21:24.433Z,15.85
2023-01-18T04:25:26.839Z,10.10
2023-01-18T04:29:28.773Z,10.10
2023-01-18T04:33:30.242Z,11.05
2023-01-18T04:37:34.570Z,12.65
2023-01-18T04:41:36.022Z,11.43
2023-01-18T04:45:37.731Z,11.57
2023-01-18T04:49:39.181Z,12.35
2023-01-18T04:53:42.425Z,8.93
2023-01-18T04:57:44.938Z,13.27
2023-01-18T05:01:46.469Z,11.02
2023-01-18T05:05:48.029Z,9.80
2023-01-18T05:09:49.543Z,13.23
2023-01-18T05:13:51.049Z,11.60
2023-01-18T05:17:52.558Z,10.15
2023-01-18T05:21:54.011Z,10.88
2023-01-18T05:25:57.424Z,13.02
2023-01-18T05:29:59.506Z,9.52
2023-01-18T05:34:01.089Z,9.80
2023-01-18T05:38:02.659Z,13.63
2023-01-18T05:42:05.526Z,7.55
2023-01-18T05:46:07.194Z,13.60
2023-01-18T05:50:10.025Z,12.20
2023-01-18T05:54:11.970Z,11.07
2023-01-18T05:58:13.430Z,11.65
2023-01-18T06:02:14.933Z,10.32
2023-01-18T06:06:16.537Z,8.43
2023-01-18T06:10:18.225Z,11.27
2023-01-18T06:14:19.686Z,9.15
2023-01-18T06:18:21.862Z,8.85
2023-01-18T06:22:23.912Z,9.55
2023-01-18T06:26:25.456Z,12.48
2023-01-18T06:30:26.907Z,9.57
2023-01-18T06:34:30.269Z,11.13
2023-01-18T06:38:32.009Z,11.90
2023-01-18T06:42:33.448Z,11.55
2023-01-18T06:46:34.961Z,14.38
2023-01-18T06:50:36.524Z,10.93
2023-01-18T06:54:38.540Z,11.05
2023-01-18T06:58:40.566Z,13.77
2023-01-18T07:02:42.077Z,18.15
2023-01-18T07:06:43.578Z,9.70
2023-01-18T07:10:45.039Z,9.43
2023-01-18T07:14:46.978Z,7.40
2023-01-18T07:18:49.430Z,10.00
2023-01-18T07:22:52.599Z,7.78
2023-01-18T07:26:54.903Z,9.48
2023-01-18T07:30:56.442Z,11.60
2023-01-18T07:34:59.489Z,10.85
2023-01-18T07:39:05.075Z,9.60
2023-01-18T07:43:06.601Z,10.65
2023-01-18T07:47:08.070Z,10.45
2023-01-18T07:51:10.369Z,5.43
2023-01-18T07:55:11.828Z,5.90
2023-01-18T07:59:13.291Z,10.05
2023-01-18T08:03:18.107Z,11.05
2023-01-18T08:07:19.917Z,8.57
2023-01-18T08:11:21.387Z,7.65
2023-01-18T08:15:22.938Z,12.57
2023-01-18T08:19:25.096Z,8.50
2023-01-18T08:23:26.615Z,5.85
2023-01-18T08:27:28.160Z,7.72
2023-01-18T08:31:29.796Z,5.35
2023-01-18T08:35:34.771Z,7.15
2023-01-18T08:39:36.224Z,6.32
2023-01-18T08:43:37.754Z,5.57
2023-01-18T08:47:40.554Z,8.30
2023-01-18T08:51:42.565Z,4.68
2023-01-18T08:55:43.992Z,8.52
2023-01-18T08:59:45.440Z,14.95
2023-01-18T09:03:48.725Z,18.85
2023-01-18T09:07:52.013Z,10.13
2023-01-18T09:11:53.622Z,7.30
2023-01-18T09:16:00.368Z,8.95
2023-01-18T09:20:01.888Z,8.88
2023-01-18T09:24:03.464Z,9.75
2023-01-18T09:28:05.322Z,11.05
2023-01-18T09:32:08.269Z,9.23
2023-01-18T09:36:12.515Z,6.07
2023-01-18T09:40:23.216Z,7.88
2023-01-18T09:44:24.653Z,8.52
2023-01-18T09:48:32.482Z,13.40
2023-01-18T09:53:06.493Z,8.35
2023-01-18T09:57:14.060Z,10.55
2023-01-18T10:01:22.297Z,9.20
2023-01-18T10:05:29.428Z,7.70
2023-01-18T10:09:42.352Z,7.13
2023-01-18T10:13:57.641Z,7.22
2023-01-18T10:18:00.917Z,6.70
2023-01-18T10:22:50.877Z,6.22
2023-01-18T10:26:58.491Z,7.32
2023-01-18T10:31:36.949Z,7.00
2023-01-18T10:35:43.255Z,6.50
2023-01-18T10:39:52.752Z,5.68
2023-01-18T10:43:55.031Z,6.47
2023-01-18T10:47:59.440Z,7.35
2023-01-18T10:52:31.399Z,8.25
2023-01-18T10:56:33.467Z,8.20
2023-01-18T11:00:35.800Z,3.95
2023-01-18T11:04:37.748Z,6.80
2023-01-18T11:08:39.212Z,7.32
2023-01-18T11:12:43.473Z,11.70
2023-01-18T11:17:02.436Z,6.93
2023-01-18T11:21:10.779Z,7.25
2023-01-18T11:25:17.267Z,11.50
2023-01-18T11:29:21.997Z,6.95
2023-01-18T11:33:25.952Z,8.77
2023-01-18T11:37:38.106Z,9.95
2023-01-18T11:41:39.532Z,9.48
2023-01-18T11:45:49.312Z,8.57
2023-01-18T11:49:53.818Z,10.10
2023-01-18T11:54:14.065Z,6.85
2023-01-18T11:58:28.326Z,11.00
2023-01-18T12:03:04.835Z,8.57
2023-01-18T12:07:08.943Z,10.60
2023-01-18T12:12:06.486Z,11.68
2023-01-18T12:16:26.484Z,5.18
2023-01-18T12:20:49.599Z,6.33
2023-01-18T12:25:28.322Z,5.90
2023-01-18T12:29:42.424Z,9.75
2023-01-18T12:34:07.043Z,11.77
2023-01-18T12:38:22.992Z,11.55
2023-01-18T12:42:56.007Z,8.73
2023-01-18T12:47:15.867Z,9.75
2023-01-18T12:51:24.611Z,5.88
2023-01-18T12:55:29.441Z,11.00
2023-01-18T12:59:46.899Z,5.80
2023-01-18T13:03:51.570Z,7.22
2023-01-18T13:08:06.482Z,5.30
2023-01-18T13:12:08.262Z,10.98
2023-01-18T13:16:31.743Z,9.23
2023-01-18T13:21:16.733Z,6.57
2023-01-18T13:25:40.360Z,7.47
2023-01-18T13:29:43.754Z,8.27
2023-01-18T13:33:45.933Z,14.18
2023-01-18T13:37:49.802Z,8.00
2023-01-18T13:42:08.029Z,8.32
2023-01-18T13:46:09.879Z,7.43
2023-01-18T13:50:34.452Z,9.98
2023-01-18T13:54:57.795Z,9.60
2023-01-18T13:59:16.226Z,8.40
2023-01-18T14:03:43.566Z,9.32
2023-01-18T14:07:48.655Z,13.93
2023-01-18T14:11:53.921Z,9.88
2023-01-18T14:15:56.030Z,8.57
2023-01-18T14:20:02.625Z,8.48
2023-01-18T14:24:14.462Z,5.45
2023-01-18T14:28:34.256Z,5.70
2023-01-18T14:32:56.379Z,5.75
2023-01-18T14:36:57.933Z,8.85
2023-01-18T14:41:05.070Z,17.45
2023-01-18T14:45:07.381Z,6.03
2023-01-18T14:49:15.552Z,7.22
2023-01-18T14:53:22.597Z,7.07
2023-01-18T14:57:24.561Z,8.80
2023-01-18T15:01:33.344Z,9.90
2023-01-18T15:05:35.634Z,13.97
2023-01-18T15:09:39.489Z,8.52
2023-01-18T15:13:55.614Z,7.95
2023-01-18T15:18:10.367Z,8.15
2023-01-18T15:22:15.279Z,6.82
2023-01-18T15:26:16.853Z,10.18
2023-01-18T15:30:23.648Z,5.97
2023-01-18T15:34:29.833Z,9.63
2023-01-18T15:38:32.213Z,7.35
2023-01-18T15:42:43.960Z,14.38
2023-01-18T15:46:45.480Z,9.27
2023-01-18T15:50:50.067Z,10.48
2023-01-18T15:54:51.706Z,8.25
2023-01-18T15:58:55.945Z,15.18
2023-01-18T16:02:58.166Z,10.27
2023-01-18T16:07:25.744Z,13.05
2023-01-18T16:11:32.573Z,9.98
2023-01-18T16:15:34.167Z,13.48
2023-01-18T16:19:48.920Z,10.00
2023-01-18T16:23:52.451Z,9.48
2023-01-18T16:27:57.124Z,17.98
2023-01-18T16:32:16.607Z,10.57
2023-01-18T16:36:19.266Z,10.20
2023-01-18T16:40:22.511Z,11.85
2023-01-18T16:44:26.050Z,9.68
2023-01-18T16:48:29.418Z,9.70
2023-01-18T16:52:30.928Z,10.52
2023-01-18T16:56:32.742Z,10.73
2023-01-18T17:00:46.047Z,9.40
2023-01-18T17:04:47.860Z,7.72
2023-01-18T17:08:49.603Z,16.92
2023-01-18T17:12:51.144Z,10.20
2023-01-18T17:16:52.720Z,9.18
2023-01-18T17:20:55.348Z,11.00
2023-01-18T17:24:56.836Z,14.27
2023-01-18T17:28:58.510Z,9.20
2023-01-18T17:33:01.020Z,11.35
2023-01-18T17:37:03.558Z,15.23
2023-01-18T17:41:05.416Z,6.97
2023-01-18T17:45:09.951Z,8.60
2023-01-18T17:49:11.486Z,11.50
2023-01-18T17:53:12.986Z,12.50
2023-01-18T17:57:14.635Z,10.57
2023-01-18T18:01:17.209Z,11.00
2023-01-18T18:05:19.351Z,12.00
2023-01-18T18:09:21.127Z,10.25
2023-01-18T18:13:22.989Z,15.32
2023-01-18T18:17:26.167Z,13.30
2023-01-18T18:21:27.765Z,6.32
2023-01-18T18:25:29.496Z,11.32
2023-01-18T18:29:30.987Z,18.40
2023-01-18T18:33:33.895Z,13.85
2023-01-18T18:37:36.101Z,12.50
2023-01-18T18:41:37.552Z,16.33
2023-01-18T18:45:39.323Z,14.93
2023-01-18T18:49:41.271Z,12.25
2023-01-18T18:53:43.137Z,13.82
2023-01-18T18:57:44.906Z,18.35
2023-01-18T19:01:46.581Z,16.85
2023-01-18T19:05:48.112Z,14.20
2023-01-18T19:09:49.628Z,20.02
2023-01-18T19:13:51.125Z,14.48
2023-01-18T19:17:53.427Z,14.40
2023-01-18T19:21:54.924Z,18.48
2023-01-18T19:25:59.279Z,22.20
2023-01-18T19:30:01.113Z,19.52
2023-01-18T19:34:02.698Z,18.75
2023-01-18T19:38:04.403Z,19.52
2023-01-18T19:42:06.794Z,27.25
2023-01-18T19:46:15.427Z,19.40
2023-01-18T19:50:17.741Z,18.05
2023-01-18T19:54:19.271Z,19.15
2023-01-18T19:58:20.725Z,21.27
2023-01-18T20:02:22.479Z,19.55
2023-01-18T20:06:24.160Z,28.77
2023-01-18T20:10:26.095Z,21.52
2023-01-18T20:14:40.301Z,20.15
2023-01-18T20:18:42.567Z,22.38
2023-01-18T20:22:45.529Z,25.73
2023-01-18T20:26:47.004Z,19.45
2023-01-18T20:30:49.894Z,21.15
2023-01-18T20:34:51.400Z,18.65
2023-01-18T20:38:52.812Z,22.60
2023-01-18T20:42:54.271Z,17.90
2023-01-18T20:46:57.305Z,17.08
2023-01-18T20:51:00.013Z,18.05
2023-01-18T20:55:01.622Z,20.35
2023-01-18T20:59:03.134Z,18.17
2023-01-18T21:03:05.162Z,17.20
2023-01-18T21:07:06.825Z,24.25
2023-01-18T21:11:12.897Z,22.35
2023-01-18T21:15:14.494Z,20.67
2023-01-18T21:19:15.996Z,19.42
2023-01-18T21:23:17.701Z,21.35
2023-01-18T21:27:19.258Z,21.45
2023-01-18T21:31:21.452Z,30.95
2023-01-18T21:35:22.927Z,26.75
2023-01-18T21:39:28.400Z,25.27
2023-01-18T21:43:48.656Z,20.52
2023-01-18T21:47:50.127Z,23.65
2023-01-18T21:52:10.166Z,28.08
2023-01-18T21:56:11.685Z,27.70
2023-01-18T22:00:13.576Z,25.60
2023-01-18T22:04:34.319Z,25.70
2023-01-18T22:08:36.063Z,27.65
2023-01-18T22:12:39.014Z,27.35
2023-01-18T22:16:41.260Z,29.00
2023-01-18T22:20:42.685Z,21.42
2023-01-18T22:24:44.089Z,22.42
2023-01-18T22:28:45.757Z,18.90
2023-01-18T22:32:47.261Z,18.08
2023-01-18T22:36:49.786Z,15.43
2023-01-18T22:41:01.170Z,17.58
2023-01-18T22:45:02.649Z,21.60
2023-01-18T22:49:04.094Z,16.23
2023-01-18T22:53:05.744Z,21.27
2023-01-18T22:57:07.202Z,21.48
2023-01-18T23:01:26.532Z,20.13
2023-01-18T23:05:28.079Z,21.23
2023-01-18T23:09:29.604Z,22.70
2023-01-18T23:13:31.627Z,29.55
2023-01-18T23:17:38.812Z,16.20
2023-01-18T23:21:40.296Z,18.45
2023-01-18T23:25:41.788Z,17.42
2023-01-18T23:29:43.342Z,17.90
2023-01-18T23:33:44.875Z,17.45
2023-01-18T23:37:46.309Z,17.27
2023-01-18T23:42:06.460Z,22.23
2023-01-18T23:46:26.296Z,18.77
2023-01-18T23:50:45.956Z,24.60
2023-01-18T23:54:47.443Z,16.02
2023-01-18T23:58:48.961Z,23.15
